createdAt,value
2022-08-25T00:00:43.176Z,995.96
2022-08-25T00:01:43.194Z,995.90
2022-08-25T00:02:55.748Z,995.93
2022-08-25T00:03:44.156Z,995.93
2022-08-25T00:04:43.136Z,995.96
2022-08-25T00:05:43.153Z,995.97
2022-08-25T00:06:43.149Z,995.96
2022-08-25T00:07:43.106Z,995.98
2022-08-25T00:08:43.096Z,995.96
2022-08-25T00:09:43.113Z,995.94
2022-08-25T00:10:43.118Z,995.99
2022-08-25T00:11:44.153Z,995.99
2022-08-25T00:12:43.080Z,995.99
2022-08-25T00:13:43.084Z,995.97
2022-08-25T00:14:43.199Z,995.96
2022-08-25T00:15:43.092Z,996.02
2022-08-25T00:16:44.081Z,996.02
2022-08-25T00:17:43.079Z,996.00
2022-08-25T00:18:43.054Z,996.05
2022-08-25T00:19:43.078Z,996.00
2022-08-25T00:20:43.289Z,996.01
2022-08-25T00:21:44.065Z,996.05
2022-08-25T00:22:43.053Z,996.06
2022-08-25T00:23:43.051Z,995.99
2022-08-25T00:24:43.040Z,996.08
2022-08-25T00:25:43.003Z,996.06
2022-08-25T00:26:43.010Z,996.06
2022-08-25T00:27:42.975Z,996.06
2022-08-25T00:28:42.994Z,996.09
2022-08-25T00:29:43.014Z,996.09
2022-08-25T00:30:43.054Z,996.08
2022-08-25T00:31:43.019Z,996.09
2022-08-25T00:32:43.000Z,996.10
2022-08-25T00:33:43.969Z,996.06
2022-08-25T00:34:42.990Z,996.10
2022-08-25T00:35:42.960Z,996.08
2022-08-25T00:36:42.953Z,996.07
2022-08-25T00:37:42.932Z,996.03
2022-08-25T00:38:42.939Z,996.01
2022-08-25T00:39:42.946Z,996.04
2022-08-25T00:40:42.898Z,996.03
2022-08-25T00:41:42.937Z,996.05
2022-08-25T00:42:42.911Z,996.04
2022-08-25T00:43:42.901Z,996.08
2022-08-25T00:44:42.878Z,996.07
2022-08-25T00:45:42.915Z,996.14
2022-08-25T00:46:42.951Z,996.07
2022-08-25T00:47:42.853Z,996.06
2022-08-25T00:48:42.844Z,996.08
2022-08-25T00:49:42.869Z,996.07
2022-08-25T00:50:42.866Z,996.06
2022-08-25T00:51:42.859Z,996.04
2022-08-25T00:52:42.842Z,996.09
2022-08-25T00:53:42.830Z,996.02
2022-08-25T00:54:42.831Z,996.03
2022-08-25T00:55:42.840Z,996.07
2022-08-25T00:56:42.819Z,996.04
2022-08-25T00:57:42.854Z,996.11
2022-08-25T00:58:42.791Z,996.06
2022-08-25T00:59:42.776Z,996.04
2022-08-25T01:00:42.795Z,995.98
2022-08-25T01:01:42.812Z,996.01
2022-08-25T01:02:42.847Z,996.01
2022-08-25T01:03:42.813Z,995.96
2022-08-25T01:04:48.699Z,995.97
2022-08-25T01:05:44.771Z,996.00
2022-08-25T01:06:42.730Z,995.97
2022-08-25T01:07:43.494Z,995.97
2022-08-25T01:08:42.747Z,995.98
2022-08-25T01:09:42.711Z,995.99
2022-08-25T01:10:42.718Z,995.95
2022-08-25T01:11:42.709Z,995.99
2022-08-25T01:12:42.721Z,995.92
2022-08-25T01:13:42.711Z,995.89
2022-08-25T01:14:42.704Z,995.93
2022-08-25T01:15:42.724Z,995.84
2022-08-25T01:16:42.763Z,995.84
2022-08-25T01:17:42.676Z,995.84
2022-08-25T01:18:43.690Z,995.85
2022-08-25T01:19:42.710Z,995.90
2022-08-25T01:20:42.654Z,995.89
2022-08-25T01:21:42.659Z,995.87
2022-08-25T01:22:42.632Z,995.88
2022-08-25T01:23:42.640Z,995.86
2022-08-25T01:24:42.709Z,995.90
2022-08-25T01:25:42.618Z,995.87
2022-08-25T01:26:42.614Z,995.87
2022-08-25T01:27:42.589Z,995.89
2022-08-25T01:28:42.621Z,995.86
2022-08-25T01:29:42.599Z,995.86
2022-08-25T01:30:42.640Z,995.91
2022-08-25T01:31:42.593Z,995.89
2022-08-25T01:32:42.573Z,995.85
2022-08-25T01:33:42.557Z,995.82
2022-08-25T01:34:42.595Z,995.90
2022-08-25T01:35:42.560Z,995.92
2022-08-25T01:36:42.628Z,995.89
2022-08-25T01:37:42.546Z,995.92
2022-08-25T01:38:42.514Z,995.96
2022-08-25T01:39:42.531Z,995.92
2022-08-25T01:40:42.528Z,995.93
2022-08-25T01:41:42.549Z,995.97
2022-08-25T01:42:42.512Z,995.93
2022-08-25T01:43:42.486Z,995.89
2022-08-25T01:44:42.529Z,995.93
2022-08-25T01:45:42.518Z,995.92
2022-08-25T01:46:42.511Z,995.89
2022-08-25T01:47:42.498Z,995.91
2022-08-25T01:48:42.493Z,995.94
2022-08-25T01:49:42.509Z,995.89
2022-08-25T01:50:42.427Z,995.85
2022-08-25T01:51:42.466Z,995.88
2022-08-25T01:52:42.486Z,995.92
2022-08-25T01:53:42.445Z,995.87
2022-08-25T01:54:42.471Z,995.79
2022-08-25T01:55:42.445Z,995.88
2022-08-25T01:56:42.445Z,995.85
2022-08-25T01:57:42.453Z,995.86
2022-08-25T01:58:42.421Z,995.86
2022-08-25T01:59:42.394Z,995.85
2022-08-25T02:00:42.408Z,995.87
2022-08-25T02:01:42.454Z,995.86
2022-08-25T02:02:42.788Z,995.88
2022-08-25T02:03:42.543Z,995.88
2022-08-25T02:04:44.609Z,995.93
2022-08-25T02:05:42.362Z,995.87
2022-08-25T02:06:42.400Z,995.83
2022-08-25T02:07:42.349Z,995.86
2022-08-25T02:08:42.395Z,995.90
2022-08-25T02:09:42.352Z,995.88
2022-08-25T02:10:42.336Z,995.88
2022-08-25T02:11:42.330Z,995.86
2022-08-25T02:12:42.343Z,995.83
2022-08-25T02:13:42.328Z,995.87
2022-08-25T02:14:42.333Z,995.85
2022-08-25T02:15:42.323Z,995.89
2022-08-25T02:16:42.319Z,995.85
2022-08-25T02:17:42.288Z,995.80
2022-08-25T02:18:42.279Z,995.88
2022-08-25T02:19:42.291Z,995.87
2022-08-25T02:20:42.313Z,995.82
2022-08-25T02:21:42.275Z,995.83
2022-08-25T02:22:43.455Z,995.84
2022-08-25T02:23:43.266Z,995.79
2022-08-25T02:24:42.265Z,995.78
2022-08-25T02:25:42.264Z,995.83
2022-08-25T02:26:42.239Z,995.83
2022-08-25T02:27:42.229Z,995.87
2022-08-25T02:28:43.265Z,995.84
2022-08-25T02:29:42.197Z,995.80
2022-08-25T02:30:42.284Z,995.83
2022-08-25T02:31:42.198Z,995.83
2022-08-25T02:32:42.194Z,995.81
2022-08-25T02:33:42.175Z,995.82
2022-08-25T02:34:42.180Z,995.80
2022-08-25T02:35:42.198Z,995.79
2022-08-25T02:36:42.193Z,995.76
2022-08-25T02:37:42.135Z,995.75
2022-08-25T02:38:42.161Z,995.73
2022-08-25T02:39:42.132Z,995.73
2022-08-25T02:40:42.161Z,995.79
2022-08-25T02:41:42.167Z,995.71
2022-08-25T02:42:42.602Z,995.72
2022-08-25T02:43:42.125Z,995.65
2022-08-25T02:44:42.127Z,995.72
2022-08-25T02:45:42.145Z,995.77
2022-08-25T02:46:42.117Z,995.71
2022-08-25T02:47:42.099Z,995.70
2022-08-25T02:48:42.094Z,995.77
2022-08-25T02:49:42.079Z,995.73
2022-08-25T02:50:42.053Z,995.70
2022-08-25T02:51:42.073Z,995.75
2022-08-25T02:52:42.103Z,995.71
2022-08-25T02:53:42.076Z,995.70
2022-08-25T02:54:42.040Z,995.65
2022-08-25T02:55:42.027Z,995.68
2022-08-25T02:56:42.020Z,995.69
2022-08-25T02:57:42.016Z,995.70
2022-08-25T02:58:42.041Z,995.70
2022-08-25T02:59:42.036Z,995.70
2022-08-25T03:00:42.071Z,995.68
2022-08-25T03:01:42.029Z,995.69
2022-08-25T03:02:42.012Z,995.75
2022-08-25T03:03:43.480Z,995.69
2022-08-25T03:04:42.045Z,995.71
2022-08-25T03:05:41.971Z,995.72
2022-08-25T03:06:41.947Z,995.73
2022-08-25T03:07:41.964Z,995.75
2022-08-25T03:08:41.969Z,995.73
2022-08-25T03:09:41.983Z,995.73
2022-08-25T03:10:41.955Z,995.73
2022-08-25T03:11:41.945Z,995.73
2022-08-25T03:12:41.927Z,995.73
2022-08-25T03:13:41.898Z,995.77
2022-08-25T03:14:41.909Z,995.77
2022-08-25T03:15:41.946Z,995.73
2022-08-25T03:16:41.934Z,995.71
2022-08-25T03:17:43.819Z,995.72
2022-08-25T03:18:42.095Z,995.71
2022-08-25T03:19:41.904Z,995.70
2022-08-25T03:20:41.912Z,995.73
2022-08-25T03:21:41.872Z,995.73
2022-08-25T03:22:42.888Z,995.73
2022-08-25T03:23:41.862Z,995.74
2022-08-25T03:24:41.854Z,995.72
2022-08-25T03:25:41.833Z,995.73
2022-08-25T03:26:41.864Z,995.67
2022-08-25T03:27:41.910Z,995.67
2022-08-25T03:28:41.847Z,995.66
2022-08-25T03:29:41.840Z,995.65
2022-08-25T03:30:41.819Z,995.64
2022-08-25T03:31:41.901Z,995.70
2022-08-25T03:32:41.803Z,995.67
2022-08-25T03:33:41.799Z,995.74
2022-08-25T03:34:41.800Z,995.69
2022-08-25T03:35:41.780Z,995.69
2022-08-25T03:36:41.814Z,995.71
2022-08-25T03:37:41.903Z,995.62
2022-08-25T03:38:41.765Z,995.73
2022-08-25T03:39:41.765Z,995.70
2022-08-25T03:40:41.771Z,995.64
2022-08-25T03:41:41.734Z,995.68
2022-08-25T03:42:44.871Z,995.70
2022-08-25T03:43:48.757Z,995.67
2022-08-25T03:44:41.744Z,995.64
2022-08-25T03:45:41.804Z,995.59
2022-08-25T03:46:41.736Z,995.63
2022-08-25T03:47:41.721Z,995.63
2022-08-25T03:48:41.718Z,995.59
2022-08-25T03:49:41.735Z,995.57
2022-08-25T03:50:41.715Z,995.53
2022-08-25T03:51:41.686Z,995.53
2022-08-25T03:52:42.727Z,995.53
2022-08-25T03:53:42.663Z,995.52
2022-08-25T03:54:41.672Z,995.52
2022-08-25T03:55:41.661Z,995.49
2022-08-25T03:56:41.634Z,995.47
2022-08-25T03:57:41.633Z,995.47
2022-08-25T03:58:41.622Z,995.43
2022-08-25T03:59:41.652Z,995.43
2022-08-25T04:00:41.600Z,995.41
2022-08-25T04:01:41.670Z,995.42
2022-08-25T04:02:41.719Z,995.41
2022-08-25T04:03:41.597Z,995.47
2022-08-25T04:04:41.620Z,995.51
2022-08-25T04:05:41.599Z,995.45
2022-08-25T04:06:41.607Z,995.50
2022-08-25T04:07:41.655Z,995.45
2022-08-25T04:08:41.654Z,995.44
2022-08-25T04:09:41.609Z,995.55
2022-08-25T04:10:41.562Z,995.55
2022-08-25T04:11:42.707Z,995.60
2022-08-25T04:12:41.559Z,995.60
2022-08-25T04:13:41.551Z,995.62
2022-08-25T04:14:41.532Z,995.58
2022-08-25T04:15:41.545Z,995.64
2022-08-25T04:16:41.551Z,995.68
2022-08-25T04:17:41.564Z,995.64
2022-08-25T04:18:41.545Z,995.65
2022-08-25T04:19:41.509Z,995.63
2022-08-25T04:20:46.401Z,995.68
2022-08-25T04:21:43.526Z,995.65
2022-08-25T04:22:41.506Z,995.62
2022-08-25T04:23:41.486Z,995.58
2022-08-25T04:24:41.511Z,995.62
2022-08-25T04:25:41.496Z,995.57
2022-08-25T04:26:41.471Z,995.53
2022-08-25T04:27:41.430Z,995.58
2022-08-25T04:28:41.442Z,995.56
2022-08-25T04:29:41.440Z,995.52
2022-08-25T04:30:41.434Z,995.62
2022-08-25T04:31:41.634Z,995.52
2022-08-25T04:32:41.480Z,995.53
2022-08-25T04:33:41.404Z,995.58
2022-08-25T04:34:41.447Z,995.58
2022-08-25T04:35:41.415Z,995.57
2022-08-25T04:36:41.425Z,995.58
2022-08-25T04:37:41.437Z,995.61
2022-08-25T04:38:41.442Z,995.57
2022-08-25T04:39:41.391Z,995.51
2022-08-25T04:40:41.379Z,995.52
2022-08-25T04:41:41.424Z,995.53
2022-08-25T04:42:41.336Z,995.51
2022-08-25T04:43:41.329Z,995.56
2022-08-25T04:44:41.366Z,995.53
2022-08-25T04:45:41.457Z,995.46
2022-08-25T04:46:41.502Z,995.49
2022-08-25T04:47:41.328Z,995.52
2022-08-25T04:48:41.319Z,995.54
2022-08-25T04:49:41.440Z,995.46
2022-08-25T04:50:41.299Z,995.47
2022-08-25T04:51:41.287Z,995.45
2022-08-25T04:52:41.279Z,995.49
2022-08-25T04:53:41.332Z,995.55
2022-08-25T04:54:41.313Z,995.59
2022-08-25T04:55:41.272Z,995.55
2022-08-25T04:56:41.268Z,995.50
2022-08-25T04:57:41.342Z,995.50
2022-08-25T04:58:41.305Z,995.45
2022-08-25T04:59:41.308Z,995.41
2022-08-25T05:00:41.308Z,995.35
2022-08-25T05:01:41.288Z,995.37
2022-08-25T05:02:41.232Z,995.37
2022-08-25T05:03:41.302Z,995.39
2022-08-25T05:04:41.277Z,995.36
2022-08-25T05:05:41.269Z,995.35
2022-08-25T05:06:41.219Z,995.48
2022-08-25T05:07:41.205Z,995.39
2022-08-25T05:08:41.357Z,995.39
2022-08-25T05:09:41.189Z,995.47
2022-08-25T05:10:41.180Z,995.42
2022-08-25T05:11:41.197Z,995.34
2022-08-25T05:12:41.202Z,995.29
2022-08-25T05:13:41.149Z,995.40
2022-08-25T05:14:41.182Z,995.42
2022-08-25T05:15:41.139Z,995.41
2022-08-25T05:16:41.174Z,995.41
2022-08-25T05:17:41.184Z,995.41
2022-08-25T05:18:41.115Z,995.37
2022-08-25T05:19:41.120Z,995.44
2022-08-25T05:20:41.095Z,995.40
2022-08-25T05:21:41.099Z,995.38
2022-08-25T05:22:41.147Z,995.38
2022-08-25T05:23:41.099Z,995.42
2022-08-25T05:24:42.080Z,995.42
2022-08-25T05:25:41.059Z,995.43
2022-08-25T05:26:41.148Z,995.46
2022-08-25T05:27:41.054Z,995.44
2022-08-25T05:28:41.204Z,995.46
2022-08-25T05:29:41.012Z,995.47
2022-08-25T05:30:41.069Z,995.42
2022-08-25T05:31:43.944Z,995.42
2022-08-25T05:32:43.027Z,995.48
2022-08-25T05:33:41.027Z,995.48
2022-08-25T05:34:41.030Z,995.45
2022-08-25T05:35:41.042Z,995.44
2022-08-25T05:36:41.046Z,995.43
2022-08-25T05:37:40.985Z,995.46
2022-08-25T05:38:41.064Z,995.54
2022-08-25T05:39:41.003Z,995.53
2022-08-25T05:40:40.984Z,995.49
2022-08-25T05:41:41.007Z,995.49
2022-08-25T05:42:40.983Z,995.51
2022-08-25T05:43:40.951Z,995.46
2022-08-25T05:44:41.007Z,995.46
2022-08-25T05:45:41.023Z,995.48
2022-08-25T05:46:41.032Z,995.45
2022-08-25T05:47:40.899Z,995.42
2022-08-25T05:48:40.936Z,995.51
2022-08-25T05:49:40.941Z,995.42
2022-08-25T05:50:40.924Z,995.51
2022-08-25T05:51:40.931Z,995.47
2022-08-25T05:52:40.970Z,995.49
2022-08-25T05:53:40.942Z,995.43
2022-08-25T05:54:40.895Z,995.42
2022-08-25T05:55:41.081Z,995.52
2022-08-25T05:56:40.888Z,995.45
2022-08-25T05:57:40.841Z,995.47
2022-08-25T05:58:40.911Z,995.42
2022-08-25T05:59:40.854Z,995.45
2022-08-25T06:00:40.863Z,995.42
2022-08-25T06:01:40.863Z,995.39
2022-08-25T06:02:40.812Z,995.36
2022-08-25T06:03:40.855Z,995.38
2022-08-25T06:04:41.349Z,995.38
2022-08-25T06:05:41.794Z,995.38
2022-08-25T06:06:40.817Z,995.39
2022-08-25T06:07:40.780Z,995.40
2022-08-25T06:08:40.765Z,995.37
2022-08-25T06:09:40.805Z,995.35
2022-08-25T06:10:40.785Z,995.39
2022-08-25T06:11:40.764Z,995.34
2022-08-25T06:12:40.813Z,995.35
2022-08-25T06:13:40.748Z,995.38
2022-08-25T06:14:40.772Z,995.36
2022-08-25T06:15:40.717Z,995.42
2022-08-25T06:16:40.796Z,995.36
2022-08-25T06:17:40.750Z,995.32
2022-08-25T06:18:41.749Z,995.29
2022-08-25T06:19:41.275Z,995.34
2022-08-25T06:20:40.705Z,995.36
2022-08-25T06:21:40.684Z,995.45
2022-08-25T06:22:40.722Z,995.33
2022-08-25T06:23:40.687Z,995.32
2022-08-25T06:24:40.667Z,995.35
2022-08-25T06:25:40.693Z,995.32
2022-08-25T06:26:41.676Z,995.34
2022-08-25T06:27:40.696Z,995.33
2022-08-25T06:28:40.662Z,995.34
2022-08-25T06:29:40.675Z,995.33
2022-08-25T06:30:40.665Z,995.33
2022-08-25T06:31:40.699Z,995.30
2022-08-25T06:32:40.597Z,995.29
2022-08-25T06:33:40.602Z,995.30
2022-08-25T06:34:40.602Z,995.29
2022-08-25T06:35:40.738Z,995.26
2022-08-25T06:36:40.677Z,995.31
2022-08-25T06:37:40.608Z,995.22
2022-08-25T06:38:40.602Z,995.24
2022-08-25T06:39:40.617Z,995.22
2022-08-25T06:40:40.576Z,995.23
2022-08-25T06:41:40.585Z,995.24
2022-08-25T06:42:40.587Z,995.19
2022-08-25T06:43:44.958Z,995.17
2022-08-25T06:44:42.528Z,995.17
2022-08-25T06:45:40.528Z,995.18
2022-08-25T06:46:40.571Z,995.14
2022-08-25T06:47:40.553Z,995.17
2022-08-25T06:48:40.537Z,995.14
2022-08-25T06:49:40.515Z,995.16
2022-08-25T06:50:40.476Z,995.16
2022-08-25T06:51:40.529Z,995.11
2022-08-25T06:52:40.495Z,995.15
2022-08-25T06:53:40.500Z,995.16
2022-08-25T06:54:40.502Z,995.12
2022-08-25T06:55:40.488Z,995.13
2022-08-25T06:56:41.455Z,995.17
2022-08-25T06:57:40.438Z,995.16
2022-08-25T06:58:40.422Z,995.14
2022-08-25T06:59:41.578Z,995.15
2022-08-25T07:00:40.478Z,995.16
2022-08-25T07:01:40.527Z,995.19
2022-08-25T07:02:40.508Z,995.10
2022-08-25T07:03:40.390Z,995.11
2022-08-25T07:04:40.445Z,995.16
2022-08-25T07:05:43.720Z,995.12
2022-08-25T07:06:41.374Z,995.05
2022-08-25T07:07:43.578Z,995.08
2022-08-25T07:08:40.371Z,995.03
2022-08-25T07:09:40.380Z,995.09
2022-08-25T07:10:40.363Z,995.05
2022-08-25T07:11:40.343Z,995.07
2022-08-25T07:12:40.334Z,995.09
2022-08-25T07:13:40.319Z,995.09
2022-08-25T07:14:40.326Z,995.06
2022-08-25T07:15:41.352Z,995.09
2022-08-25T07:16:40.406Z,995.10
2022-08-25T07:17:40.326Z,995.03
2022-08-25T07:18:40.327Z,994.98
2022-08-25T07:19:40.951Z,995.03
2022-08-25T07:20:40.342Z,995.02
2022-08-25T07:21:40.290Z,995.02
2022-08-25T07:22:40.307Z,994.98
2022-08-25T07:23:40.269Z,994.97
2022-08-25T07:24:40.236Z,994.95
2022-08-25T07:25:40.315Z,995.03
2022-08-25T07:26:40.241Z,995.00
2022-08-25T07:27:41.120Z,994.98
2022-08-25T07:28:40.273Z,994.98
2022-08-25T07:29:42.639Z,994.99
2022-08-25T07:30:40.226Z,994.95
2022-08-25T07:31:40.242Z,994.96
2022-08-25T07:32:41.947Z,995.02
2022-08-25T07:33:40.225Z,994.99
2022-08-25T07:34:40.194Z,995.05
2022-08-25T07:35:40.235Z,995.04
2022-08-25T07:36:40.178Z,994.99
2022-08-25T07:37:48.853Z,995.05
2022-08-25T07:38:42.188Z,995.06
2022-08-25T07:39:40.156Z,995.07
2022-08-25T07:40:42.982Z,995.07
2022-08-25T07:41:40.121Z,995.05
2022-08-25T07:42:40.150Z,995.04
2022-08-25T07:43:40.153Z,995.09
2022-08-25T07:44:40.110Z,995.07
2022-08-25T07:45:49.025Z,995.07
2022-08-25T07:46:41.126Z,995.05
2022-08-25T07:47:40.099Z,995.03
2022-08-25T07:48:40.091Z,995.05
2022-08-25T07:49:40.104Z,995.06
2022-08-25T07:50:40.140Z,994.99
2022-08-25T07:51:40.080Z,994.99
2022-08-25T07:52:41.112Z,995.05
2022-08-25T07:53:40.075Z,995.02
2022-08-25T07:54:40.055Z,995.02
2022-08-25T07:55:40.073Z,995.10
2022-08-25T07:56:40.074Z,995.09
2022-08-25T07:57:40.082Z,995.10
2022-08-25T07:58:40.128Z,995.12
2022-08-25T07:59:40.427Z,995.12
2022-08-25T08:00:40.058Z,995.07
2022-08-25T08:01:40.149Z,995.18
2022-08-25T08:02:40.025Z,995.05
2022-08-25T08:03:50.354Z,995.13
2022-08-25T08:04:42.016Z,995.11
2022-08-25T08:05:40.009Z,995.12
2022-08-25T08:06:39.975Z,995.07
2022-08-25T08:07:43.311Z,995.09
2022-08-25T08:08:39.960Z,995.08
2022-08-25T08:09:39.952Z,995.10
2022-08-25T08:11:03.232Z,995.14
2022-08-25T08:11:45.594Z,995.12
2022-08-25T08:12:42.009Z,995.12
2022-08-25T08:13:41.512Z,995.02
2022-08-25T08:14:45.085Z,995.11
2022-08-25T08:15:40.966Z,995.10
2022-08-25T08:16:39.992Z,995.09
2022-08-25T08:17:39.916Z,995.02
2022-08-25T08:18:39.874Z,995.07
2022-08-25T08:19:43.091Z,995.08
2022-08-25T08:20:43.120Z,995.01
2022-08-25T08:21:39.845Z,995.05
2022-08-25T08:22:40.890Z,994.96
2022-08-25T08:23:39.863Z,995.00
2022-08-25T08:24:44.891Z,994.99
2022-08-25T08:25:41.882Z,994.99
2022-08-25T08:26:57.568Z,995.00
2022-08-25T08:27:41.848Z,995.00
2022-08-25T08:28:39.869Z,994.96
2022-08-25T08:29:39.801Z,994.94
2022-08-25T08:30:39.815Z,994.96
2022-08-25T08:31:40.898Z,994.99
2022-08-25T08:33:08.076Z,994.99
2022-08-25T08:33:41.783Z,995.00
2022-08-25T08:34:39.779Z,994.87
2022-08-25T08:35:39.796Z,994.96
2022-08-25T08:36:39.797Z,994.96
2022-08-25T08:37:39.777Z,994.94
2022-08-25T08:38:40.521Z,994.98
2022-08-25T08:39:39.794Z,994.93
2022-08-25T08:40:39.798Z,994.95
2022-08-25T08:42:00.663Z,994.93
2022-08-25T08:42:42.030Z,994.98
2022-08-25T08:43:39.723Z,995.00
2022-08-25T08:44:39.737Z,994.92
2022-08-25T08:45:40.491Z,994.91
2022-08-25T08:46:39.767Z,994.94
2022-08-25T08:47:39.705Z,994.88
2022-08-25T08:48:39.764Z,994.91
2022-08-25T08:49:39.715Z,994.89
2022-08-25T08:50:39.756Z,994.85
2022-08-25T08:51:39.666Z,994.86
2022-08-25T08:52:39.638Z,994.82
2022-08-25T08:53:39.679Z,994.85
2022-08-25T08:54:41.268Z,994.81
2022-08-25T08:55:39.654Z,994.86
2022-08-25T08:56:39.668Z,994.78
2022-08-25T08:57:40.677Z,994.82
2022-08-25T08:58:39.660Z,994.77
2022-08-25T08:59:39.653Z,994.80
2022-08-25T09:00:39.684Z,994.81
2022-08-25T09:01:39.663Z,994.75
2022-08-25T09:02:51.351Z,994.72
2022-08-25T09:03:41.646Z,994.74
2022-08-25T09:04:39.582Z,994.76
2022-08-25T09:05:43.784Z,994.72
2022-08-25T09:06:41.642Z,994.73
2022-08-25T09:07:39.626Z,994.68
2022-08-25T09:08:39.606Z,994.72
2022-08-25T09:09:40.594Z,994.69
2022-08-25T09:10:39.609Z,994.66
2022-08-25T09:11:39.552Z,994.68
2022-08-25T09:12:39.590Z,994.68
2022-08-25T09:13:39.538Z,994.65
2022-08-25T09:14:39.557Z,994.69
2022-08-25T09:15:41.052Z,994.67
2022-08-25T09:16:39.613Z,994.66
2022-08-25T09:17:39.548Z,994.63
2022-08-25T09:18:41.055Z,994.66
2022-08-25T09:19:41.829Z,994.63
2022-08-25T09:20:39.504Z,994.66
2022-08-25T09:21:39.487Z,994.64
2022-08-25T09:22:39.495Z,994.60
2022-08-25T09:23:39.485Z,994.66
2022-08-25T09:24:39.494Z,994.63
2022-08-25T09:25:53.177Z,994.65
2022-08-25T09:26:41.439Z,994.61
2022-08-25T09:27:39.456Z,994.62
2022-08-25T09:28:39.493Z,994.62
2022-08-25T09:29:39.431Z,994.58
2022-08-25T09:30:39.466Z,994.57
2022-08-25T09:31:39.463Z,994.57
2022-08-25T09:32:39.421Z,994.56
2022-08-25T09:33:39.451Z,994.50
2022-08-25T09:34:39.400Z,994.47
2022-08-25T09:35:39.409Z,994.47
2022-08-25T09:36:39.391Z,994.44
2022-08-25T09:37:39.405Z,994.45
2022-08-25T09:38:39.477Z,994.43
2022-08-25T09:39:39.408Z,994.39
2022-08-25T09:40:39.453Z,994.37
2022-08-25T09:41:39.406Z,994.43
2022-08-25T09:42:39.355Z,994.32
2022-08-25T09:43:39.381Z,994.27
2022-08-25T09:44:39.441Z,994.26
2022-08-25T09:45:39.388Z,994.22
2022-08-25T09:46:39.467Z,994.28
2022-08-25T09:47:40.390Z,994.19
2022-08-25T09:48:40.779Z,994.17
2022-08-25T09:49:40.349Z,994.18
2022-08-25T09:50:41.823Z,994.16
2022-08-25T09:51:42.917Z,994.11
2022-08-25T09:52:41.340Z,994.17
2022-08-25T09:53:39.313Z,994.10
2022-08-25T09:54:44.045Z,994.05
2022-08-25T09:55:40.343Z,993.98
2022-08-25T09:56:39.329Z,993.96
2022-08-25T09:57:39.311Z,994.02
2022-08-25T09:58:39.285Z,994.02
2022-08-25T09:59:39.421Z,993.96
2022-08-25T10:00:40.277Z,993.96
2022-08-25T10:01:39.315Z,993.93
2022-08-25T10:02:39.269Z,993.96
2022-08-25T10:03:39.216Z,993.94
2022-08-25T10:04:40.088Z,993.93
2022-08-25T10:05:39.248Z,993.94
2022-08-25T10:06:39.215Z,993.85
2022-08-25T10:07:39.219Z,993.85
2022-08-25T10:08:39.504Z,993.93
2022-08-25T10:09:39.199Z,993.83
2022-08-25T10:10:41.940Z,993.72
2022-08-25T10:11:39.221Z,993.83
2022-08-25T10:12:42.512Z,993.74
2022-08-25T10:13:40.200Z,993.83
2022-08-25T10:14:39.200Z,993.71
2022-08-25T10:15:40.190Z,993.72
2022-08-25T10:16:39.200Z,993.68
2022-08-25T10:17:39.159Z,993.74
2022-08-25T10:18:39.180Z,993.69
2022-08-25T10:19:39.171Z,993.69
2022-08-25T10:20:44.575Z,993.59
2022-08-25T10:21:40.254Z,993.52
2022-08-25T10:22:39.145Z,993.58
2022-08-25T10:23:39.162Z,993.51
2022-08-25T10:24:39.098Z,993.48
2022-08-25T10:25:39.841Z,993.52
2022-08-25T10:26:39.134Z,993.47
2022-08-25T10:27:39.129Z,993.48
2022-08-25T10:28:39.065Z,993.50
2022-08-25T10:29:40.979Z,993.47
2022-08-25T10:30:39.166Z,993.50
2022-08-25T10:31:41.295Z,993.43
2022-08-25T10:32:39.099Z,993.47
2022-08-25T10:33:39.307Z,993.40
2022-08-25T10:34:39.066Z,993.42
2022-08-25T10:35:40.110Z,993.40
2022-08-25T10:36:39.036Z,993.39
2022-08-25T10:37:39.066Z,993.32
2022-08-25T10:38:39.070Z,993.23
2022-08-25T10:39:40.622Z,993.29
2022-08-25T10:40:39.080Z,993.28
2022-08-25T10:41:39.015Z,993.24
2022-08-25T10:42:39.027Z,993.28
2022-08-25T10:43:38.997Z,993.22
2022-08-25T10:44:38.978Z,993.16
2022-08-25T10:45:39.056Z,993.28
2022-08-25T10:46:39.050Z,993.24
2022-08-25T10:47:38.987Z,993.21
2022-08-25T10:48:39.101Z,993.15
2022-08-25T10:49:39.009Z,993.12
2022-08-25T10:50:39.078Z,993.13
2022-08-25T10:51:40.023Z,993.18
2022-08-25T10:52:38.995Z,993.05
2022-08-25T10:53:38.927Z,993.09
2022-08-25T10:54:38.950Z,993.02
2022-08-25T10:55:40.283Z,993.01
2022-08-25T10:56:40.737Z,993.04
2022-08-25T10:57:38.936Z,993.05
2022-08-25T10:58:38.933Z,992.96
2022-08-25T10:59:38.894Z,992.97
2022-08-25T11:00:40.354Z,992.91
2022-08-25T11:01:44.038Z,992.96
2022-08-25T11:02:41.541Z,992.88
2022-08-25T11:03:39.910Z,992.90
2022-08-25T11:04:38.973Z,992.90
2022-08-25T11:05:38.903Z,992.86
2022-08-25T11:06:38.843Z,992.91
2022-08-25T11:07:38.813Z,992.94
2022-08-25T11:08:38.821Z,992.95
2022-08-25T11:09:38.839Z,992.87
2022-08-25T11:10:38.808Z,992.85
2022-08-25T11:11:38.935Z,992.86
2022-08-25T11:12:38.941Z,992.83
2022-08-25T11:13:38.837Z,992.84
2022-08-25T11:14:38.786Z,992.86
2022-08-25T11:15:41.450Z,992.92
2022-08-25T11:16:39.858Z,992.88
2022-08-25T11:17:38.796Z,992.81
2022-08-25T11:18:38.771Z,992.91
2022-08-25T11:19:38.783Z,992.88
2022-08-25T11:20:38.796Z,992.93
2022-08-25T11:21:38.751Z,992.93
2022-08-25T11:22:38.793Z,992.85
2022-08-25T11:23:39.646Z,992.82
2022-08-25T11:24:38.912Z,992.73
2022-08-25T11:25:38.723Z,992.78
2022-08-25T11:26:38.751Z,992.74
2022-08-25T11:27:38.798Z,992.74
2022-08-25T11:28:38.740Z,992.71
2022-08-25T11:29:39.547Z,992.68
2022-08-25T11:30:38.858Z,992.74
2022-08-25T11:31:38.709Z,992.74
2022-08-25T11:32:38.671Z,992.71
2022-08-25T11:33:38.701Z,992.71
2022-08-25T11:34:43.557Z,992.67
2022-08-25T11:35:39.705Z,992.73
2022-08-25T11:36:38.671Z,992.73
2022-08-25T11:37:38.664Z,992.71
2022-08-25T11:38:38.636Z,992.70
2022-08-25T11:39:38.674Z,992.64
2022-08-25T11:40:38.668Z,992.76
2022-08-25T11:41:38.629Z,992.66
2022-08-25T11:42:38.594Z,992.69
2022-08-25T11:43:40.576Z,992.69
2022-08-25T11:44:38.602Z,992.67
2022-08-25T11:45:38.638Z,992.66
2022-08-25T11:46:38.635Z,992.65
2022-08-25T11:47:38.572Z,992.62
2022-08-25T11:48:38.574Z,992.57
2022-08-25T11:49:38.577Z,992.61
2022-08-25T11:50:38.588Z,992.68
2022-08-25T11:51:38.727Z,992.60
2022-08-25T11:52:38.571Z,992.60
2022-08-25T11:53:38.583Z,992.66
2022-08-25T11:54:38.539Z,992.57
2022-08-25T11:55:38.577Z,992.58
2022-08-25T11:56:40.080Z,992.49
2022-08-25T11:57:38.536Z,992.50
2022-08-25T11:58:39.078Z,992.50
2022-08-25T11:59:38.517Z,992.46
2022-08-25T12:00:38.490Z,992.43
2022-08-25T12:01:38.489Z,992.45
2022-08-25T12:02:38.514Z,992.52
2022-08-25T12:03:38.501Z,992.47
2022-08-25T12:04:44.932Z,992.47
2022-08-25T12:05:39.550Z,992.39
2022-08-25T12:06:38.536Z,992.40
2022-08-25T12:07:38.527Z,992.50
2022-08-25T12:08:38.460Z,992.42
2022-08-25T12:09:38.445Z,992.45
2022-08-25T12:10:38.507Z,992.47
2022-08-25T12:11:38.473Z,992.49
2022-08-25T12:12:38.419Z,992.46
2022-08-25T12:13:38.480Z,992.44
2022-08-25T12:14:38.398Z,992.41
2022-08-25T12:15:38.423Z,992.42
2022-08-25T12:16:38.444Z,992.38
2022-08-25T12:17:38.444Z,992.46
2022-08-25T12:18:38.454Z,992.46
2022-08-25T12:19:39.374Z,992.40
2022-08-25T12:20:38.410Z,992.42
2022-08-25T12:21:38.367Z,992.37
2022-08-25T12:22:38.420Z,992.40
2022-08-25T12:23:38.348Z,992.43
2022-08-25T12:24:39.372Z,992.40
2022-08-25T12:25:39.356Z,992.39
2022-08-25T12:26:39.543Z,992.38
2022-08-25T12:27:38.421Z,992.31
2022-08-25T12:28:39.093Z,992.37